sensor_id;sensor_type;location;lat;lon;timestamp;temperature;humidity
23237;DHT22;11787;52.018;8.570;2023-06-22T00:00:29;20.30;99.90
23237;DHT22;11787;52.018;8.570;2023-06-22T00:02:55;20.20;99.90
23237;DHT22;11787;52.018;8.570;2023-06-22T00:05:20;20.10;99.90
23237;DHT22;11787;52.018;8.570;2023-06-22T00:07:46;20.00;99.90
23237;DHT22;11787;52.018;8.570;2023-06-22T00:10:11;20.00;99.90
23237;DHT22;11787;52.018;8.570;2023-06-22T00:12:37;20.00;99.90
23237;DHT22;11787;52.018;8.570;2023-06-22T00:15:03;20.00;99.90
23237;DHT22;11787;52.018;8.570;2023-06-22T00:17:28;20.00;99.90
23237;DHT22;11787;52.018;8.570;2023-06-22T00:19:54;20.00;99.90
23237;DHT22;11787;52.018;8.570;2023-06-22T00:22:20;20.10;99.90
23237;DHT22;11787;52.018;8.570;2023-06-22T00:24:56;20.10;99.90
23237;DHT22;11787;52.018;8.570;2023-06-22T00:27:22;20.10;99.90
23237;DHT22;11787;52.018;8.570;2023-06-22T00:29:47;20.10;99.90
23237;DHT22;11787;52.018;8.570;2023-06-22T00:32:13;20.10;99.90
23237;DHT22;11787;52.018;8.570;2023-06-22T00:34:38;20.20;99.90
23237;DHT22;11787;52.018;8.570;2023-06-22T00:37:04;20.10;99.90
23237;DHT22;11787;52.018;8.570;2023-06-22T00:39:29;20.10;99.90
23237;DHT22;11787;52.018;8.570;2023-06-22T00:41:55;20.00;99.90
23237;DHT22;11787;52.018;8.570;2023-06-22T00:44:20;20.00;99.90
23237;DHT22;11787;52.018;8.570;2023-06-22T00:46:46;20.00;99.90
23237;DHT22;11787;52.018;8.570;2023-06-22T00:49:11;20.00;99.90
23237;DHT22;11787;52.018;8.570;2023-06-22T00:51:37;19.90;99.90
23237;DHT22;11787;52.018;8.570;2023-06-22T00:54:03;19.90;99.90
23237;DHT22;11787;52.018;8.570;2023-06-22T00:56:30;19.90;99.90
23237;DHT22;11787;52.018;8.570;2023-06-22T00:58:56;19.90;99.90
23237;DHT22;11787;52.018;8.570;2023-06-22T01:01:23;19.90;99.90
23237;DHT22;11787;52.018;8.570;2023-06-22T01:03:48;20.00;99.90
23237;DHT22;11787;52.018;8.570;2023-06-22T01:06:17;20.00;99.90
23237;DHT22;11787;52.018;8.570;2023-06-22T01:08:46;19.90;99.90
23237;DHT22;11787;52.018;8.570;2023-06-22T01:11:22;19.80;99.90
23237;DHT22;11787;52.018;8.570;2023-06-22T01:13:56;19.80;99.90
23237;DHT22;11787;52.018;8.570;2023-06-22T01:16:23;19.80;99.90
23237;DHT22;11787;52.018;8.570;2023-06-22T01:18:51;19.80;99.90
23237;DHT22;11787;52.018;8.570;2023-06-22T01:21:17;19.80;99.90
23237;DHT22;11787;52.018;8.570;2023-06-22T01:24:02;19.90;99.90
23237;DHT22;11787;52.018;8.570;2023-06-22T01:29:00;19.90;99.90
23237;DHT22;11787;52.018;8.570;2023-06-22T01:31:27;19.90;99.90
23237;DHT22;11787;52.018;8.570;2023-06-22T01:34:05;19.90;99.90
23237;DHT22;11787;52.018;8.570;2023-06-22T01:36:32;19.80;99.90
23237;DHT22;11787;52.018;8.570;2023-06-22T01:38:58;19.90;99.90
23237;DHT22;11787;52.018;8.570;2023-06-22T01:41:25;19.80;99.90
23237;DHT22;11787;52.018;8.570;2023-06-22T01:43:51;19.80;99.90
23237;DHT22;11787;52.018;8.570;2023-06-22T01:46:17;19.80;99.90
23237;DHT22;11787;52.018;8.570;2023-06-22T01:48:44;19.90;99.90
23237;DHT22;11787;52.018;8.570;2023-06-22T01:51:10;19.90;99.90
23237;DHT22;11787;52.018;8.570;2023-06-22T01:53:35;19.90;99.90
23237;DHT22;11787;52.018;8.570;2023-06-22T01:56:01;19.90;99.90
23237;DHT22;11787;52.018;8.570;2023-06-22T01:58:27;19.90;99.90
23237;DHT22;11787;52.018;8.570;2023-06-22T02:03:50;19.80;99.90
23237;DHT22;11787;52.018;8.570;2023-06-22T02:06:21;19.80;99.90
23237;DHT22;11787;52.018;8.570;2023-06-22T02:08:53;19.80;99.90
23237;DHT22;11787;52.018;8.570;2023-06-22T02:11:19;19.70;99.90
23237;DHT22;11787;52.018;8.570;2023-06-22T02:13:45;19.80;99.90
23237;DHT22;11787;52.018;8.570;2023-06-22T02:16:11;19.70;99.90
23237;DHT22;11787;52.018;8.570;2023-06-22T02:18:37;19.70;99.90
23237;DHT22;11787;52.018;8.570;2023-06-22T02:21:02;19.60;99.90
23237;DHT22;11787;52.018;8.570;2023-06-22T02:23:28;19.50;99.90
23237;DHT22;11787;52.018;8.570;2023-06-22T02:25:53;19.50;99.90
23237;DHT22;11787;52.018;8.570;2023-06-22T02:28:19;19.60;99.90
23237;DHT22;11787;52.018;8.570;2023-06-22T02:30:44;19.50;99.90
23237;DHT22;11787;52.018;8.570;2023-06-22T02:33:10;19.50;99.90
23237;DHT22;11787;52.018;8.570;2023-06-22T02:35:35;19.50;99.90
23237;DHT22;11787;52.018;8.570;2023-06-22T02:38:01;19.50;99.90
23237;DHT22;11787;52.018;8.570;2023-06-22T02:40:28;19.50;99.90
23237;DHT22;11787;52.018;8.570;2023-06-22T02:42:54;19.50;99.90
23237;DHT22;11787;52.018;8.570;2023-06-22T02:45:20;19.50;99.90
23237;DHT22;11787;52.018;8.570;2023-06-22T02:47:45;19.50;99.90
23237;DHT22;11787;52.018;8.570;2023-06-22T02:50:13;19.50;99.90
23237;DHT22;11787;52.018;8.570;2023-06-22T02:52:38;19.60;99.90
23237;DHT22;11787;52.018;8.570;2023-06-22T02:55:04;19.60;99.90
23237;DHT22;11787;52.018;8.570;2023-06-22T02:57:30;19.70;99.90
23237;DHT22;11787;52.018;8.570;2023-06-22T02:59:55;19.60;99.90
23237;DHT22;11787;52.018;8.570;2023-06-22T03:02:21;19.50;99.90
23237;DHT22;11787;52.018;8.570;2023-06-22T03:04:47;19.50;99.90
23237;DHT22;11787;52.018;8.570;2023-06-22T03:07:14;19.60;99.90
23237;DHT22;11787;52.018;8.570;2023-06-22T03:09:39;19.60;99.90
23237;DHT22;11787;52.018;8.570;2023-06-22T03:12:05;19.60;99.90
23237;DHT22;11787;52.018;8.570;2023-06-22T03:14:30;19.60;99.90
23237;DHT22;11787;52.018;8.570;2023-06-22T03:16:56;19.50;99.90
23237;DHT22;11787;52.018;8.570;2023-06-22T03:19:27;19.60;99.90
23237;DHT22;11787;52.018;8.570;2023-06-22T03:21:54;19.50;99.90
23237;DHT22;11787;52.018;8.570;2023-06-22T03:24:20;19.50;99.90
23237;DHT22;11787;52.018;8.570;2023-06-22T03:26:45;19.50;99.90
23237;DHT22;11787;52.018;8.570;2023-06-22T03:29:12;19.50;99.90
23237;DHT22;11787;52.018;8.570;2023-06-22T03:31:37;19.50;99.90
23237;DHT22;11787;52.018;8.570;2023-06-22T03:34:03;19.50;99.90
23237;DHT22;11787;52.018;8.570;2023-06-22T03:36:28;19.50;99.90
23237;DHT22;11787;52.018;8.570;2023-06-22T03:38:54;19.40;99.90
23237;DHT22;11787;52.018;8.570;2023-06-22T03:41:19;19.40;99.90
23237;DHT22;11787;52.018;8.570;2023-06-22T03:43:45;19.40;99.90
23237;DHT22;11787;52.018;8.570;2023-06-22T03:46:11;19.40;99.90
23237;DHT22;11787;52.018;8.570;2023-06-22T03:48:36;19.40;99.90
23237;DHT22;11787;52.018;8.570;2023-06-22T03:51:02;19.40;99.90
23237;DHT22;11787;52.018;8.570;2023-06-22T03:53:28;19.40;99.90
23237;DHT22;11787;52.018;8.570;2023-06-22T03:55:54;19.40;99.90
23237;DHT22;11787;52.018;8.570;2023-06-22T03:58:19;19.50;99.90
23237;DHT22;11787;52.018;8.570;2023-06-22T04:00:48;19.50;99.90
23237;DHT22;11787;52.018;8.570;2023-06-22T04:03:15;19.60;99.90
23237;DHT22;11787;52.018;8.570;2023-06-22T04:05:40;19.60;99.90
23237;DHT22;11787;52.018;8.570;2023-06-22T04:08:06;19.50;99.90
23237;DHT22;11787;52.018;8.570;2023-06-22T04:10:32;19.60;99.90
23237;DHT22;11787;52.018;8.570;2023-06-22T04:12:57;19.50;99.90
23237;DHT22;11787;52.018;8.570;2023-06-22T04:15:22;19.50;99.90
23237;DHT22;11787;52.018;8.570;2023-06-22T04:17:48;19.50;99.90
23237;DHT22;11787;52.018;8.570;2023-06-22T04:20:14;19.50;99.90
23237;DHT22;11787;52.018;8.570;2023-06-22T04:22:39;19.50;99.90
23237;DHT22;11787;52.018;8.570;2023-06-22T04:25:05;19.60;99.90
23237;DHT22;11787;52.018;8.570;2023-06-22T04:27:30;19.50;99.90
23237;DHT22;11787;52.018;8.570;2023-06-22T04:29:56;19.60;99.90
23237;DHT22;11787;52.018;8.570;2023-06-22T04:32:25;19.60;99.90
23237;DHT22;11787;52.018;8.570;2023-06-22T04:34:50;19.70;99.90
23237;DHT22;11787;52.018;8.570;2023-06-22T04:37:17;19.70;99.90
23237;DHT22;11787;52.018;8.570;2023-06-22T04:39:43;19.70;99.90
23237;DHT22;11787;52.018;8.570;2023-06-22T04:42:08;19.80;99.90
23237;DHT22;11787;52.018;8.570;2023-06-22T04:44:34;19.80;99.90
23237;DHT22;11787;52.018;8.570;2023-06-22T04:47:00;19.80;99.90
23237;DHT22;11787;52.018;8.570;2023-06-22T04:49:28;19.80;99.90
23237;DHT22;11787;52.018;8.570;2023-06-22T04:52:01;19.80;99.90
23237;DHT22;11787;52.018;8.570;2023-06-22T04:54:27;19.80;99.90
23237;DHT22;11787;52.018;8.570;2023-06-22T04:56:52;19.90;99.90
23237;DHT22;11787;52.018;8.570;2023-06-22T04:59:24;19.90;99.90
23237;DHT22;11787;52.018;8.570;2023-06-22T05:01:57;19.90;99.90
23237;DHT22;11787;52.018;8.570;2023-06-22T05:04:23;20.00;99.90
23237;DHT22;11787;52.018;8.570;2023-06-22T05:06:49;20.10;99.90
23237;DHT22;11787;52.018;8.570;2023-06-22T05:09:15;20.10;99.90
23237;DHT22;11787;52.018;8.570;2023-06-22T05:11:40;20.10;99.90
23237;DHT22;11787;52.018;8.570;2023-06-22T05:14:06;20.20;99.90
23237;DHT22;11787;52.018;8.570;2023-06-22T05:16:32;20.30;99.90
23237;DHT22;11787;52.018;8.570;2023-06-22T05:18:58;20.40;99.90
23237;DHT22;11787;52.018;8.570;2023-06-22T05:21:26;20.40;99.90
23237;DHT22;11787;52.018;8.570;2023-06-22T05:23:53;20.40;99.90
23237;DHT22;11787;52.018;8.570;2023-06-22T05:26:19;20.40;99.90
23237;DHT22;11787;52.018;8.570;2023-06-22T05:28:45;20.40;99.90
23237;DHT22;11787;52.018;8.570;2023-06-22T05:31:13;20.50;99.90
23237;DHT22;11787;52.018;8.570;2023-06-22T05:33:39;20.60;99.90
23237;DHT22;11787;52.018;8.570;2023-06-22T05:36:05;20.70;99.90
23237;DHT22;11787;52.018;8.570;2023-06-22T05:38:30;20.90;99.90
23237;DHT22;11787;52.018;8.570;2023-06-22T05:40:56;20.90;99.90
23237;DHT22;11787;52.018;8.570;2023-06-22T05:43:22;20.90;99.90
23237;DHT22;11787;52.018;8.570;2023-06-22T05:45:47;20.90;99.90
23237;DHT22;11787;52.018;8.570;2023-06-22T05:48:13;20.80;99.90
23237;DHT22;11787;52.018;8.570;2023-06-22T05:50:39;20.80;99.90
23237;DHT22;11787;52.018;8.570;2023-06-22T05:53:04;20.90;99.90
23237;DHT22;11787;52.018;8.570;2023-06-22T05:55:32;21.00;99.90
23237;DHT22;11787;52.018;8.570;2023-06-22T05:57:57;21.10;99.90
23237;DHT22;11787;52.018;8.570;2023-06-22T06:00:23;21.30;99.90
23237;DHT22;11787;52.018;8.570;2023-06-22T06:02:49;21.40;99.90
23237;DHT22;11787;52.018;8.570;2023-06-22T06:05:14;21.60;99.90
23237;DHT22;11787;52.018;8.570;2023-06-22T06:07:40;21.80;99.90
23237;DHT22;11787;52.018;8.570;2023-06-22T06:10:06;22.00;99.90
23237;DHT22;11787;52.018;8.570;2023-06-22T06:12:32;22.30;99.90
23237;DHT22;11787;52.018;8.570;2023-06-22T06:14:57;22.80;99.90
23237;DHT22;11787;52.018;8.570;2023-06-22T06:17:23;23.10;99.90
23237;DHT22;11787;52.018;8.570;2023-06-22T06:19:48;23.20;99.90
23237;DHT22;11787;52.018;8.570;2023-06-22T06:22:14;23.00;99.90
23237;DHT22;11787;52.018;8.570;2023-06-22T06:24:39;22.80;99.90
23237;DHT22;11787;52.018;8.570;2023-06-22T06:27:05;22.70;99.90
23237;DHT22;11787;52.018;8.570;2023-06-22T06:29:31;22.70;99.90
23237;DHT22;11787;52.018;8.570;2023-06-22T06:31:57;22.60;99.90
23237;DHT22;11787;52.018;8.570;2023-06-22T06:34:22;22.60;99.90
23237;DHT22;11787;52.018;8.570;2023-06-22T06:36:48;22.70;99.90
23237;DHT22;11787;52.018;8.570;2023-06-22T06:39:13;22.70;99.90
23237;DHT22;11787;52.018;8.570;2023-06-22T06:41:39;22.90;99.90
23237;DHT22;11787;52.018;8.570;2023-06-22T06:44:04;22.90;99.90
23237;DHT22;11787;52.018;8.570;2023-06-22T06:46:30;23.00;99.90
23237;DHT22;11787;52.018;8.570;2023-06-22T06:48:55;23.00;99.90
23237;DHT22;11787;52.018;8.570;2023-06-22T06:51:20;23.10;99.90
23237;DHT22;11787;52.018;8.570;2023-06-22T06:53:46;23.20;99.90
23237;DHT22;11787;52.018;8.570;2023-06-22T06:56:11;23.30;99.90
23237;DHT22;11787;52.018;8.570;2023-06-22T06:58:40;23.40;99.90
23237;DHT22;11787;52.018;8.570;2023-06-22T07:01:05;23.40;99.90
23237;DHT22;11787;52.018;8.570;2023-06-22T07:03:31;23.50;99.90
23237;DHT22;11787;52.018;8.570;2023-06-22T07:05:58;23.50;99.90
23237;DHT22;11787;52.018;8.570;2023-06-22T07:08:24;23.40;99.90
23237;DHT22;11787;52.018;8.570;2023-06-22T07:10:49;23.40;99.90
23237;DHT22;11787;52.018;8.570;2023-06-22T07:13:15;23.40;99.90
23237;DHT22;11787;52.018;8.570;2023-06-22T07:15:40;23.30;99.90
23237;DHT22;11787;52.018;8.570;2023-06-22T07:18:06;23.40;99.90
23237;DHT22;11787;52.018;8.570;2023-06-22T07:20:31;23.40;99.90
23237;DHT22;11787;52.018;8.570;2023-06-22T07:22:57;23.40;99.90
23237;DHT22;11787;52.018;8.570;2023-06-22T07:25:23;23.40;99.90
23237;DHT22;11787;52.018;8.570;2023-06-22T07:27:59;23.40;99.90
23237;DHT22;11787;52.018;8.570;2023-06-22T07:30:25;23.40;99.90
23237;DHT22;11787;52.018;8.570;2023-06-22T07:32:50;23.40;99.90
23237;DHT22;11787;52.018;8.570;2023-06-22T07:35:16;23.30;99.90
23237;DHT22;11787;52.018;8.570;2023-06-22T07:37:44;23.30;99.90
23237;DHT22;11787;52.018;8.570;2023-06-22T07:40:09;23.20;99.90
23237;DHT22;11787;52.018;8.570;2023-06-22T07:42:35;23.20;99.90
23237;DHT22;11787;52.018;8.570;2023-06-22T07:45:01;23.20;99.90
23237;DHT22;11787;52.018;8.570;2023-06-22T07:47:27;23.20;99.90
23237;DHT22;11787;52.018;8.570;2023-06-22T07:49:54;23.30;99.90
23237;DHT22;11787;52.018;8.570;2023-06-22T07:52:20;23.30;99.90
23237;DHT22;11787;52.018;8.570;2023-06-22T07:54:46;23.40;99.90
23237;DHT22;11787;52.018;8.570;2023-06-22T07:57:11;23.40;99.90
23237;DHT22;11787;52.018;8.570;2023-06-22T07:59:37;23.40;99.90
23237;DHT22;11787;52.018;8.570;2023-06-22T08:02:03;23.50;99.90
23237;DHT22;11787;52.018;8.570;2023-06-22T08:04:29;23.40;99.90
23237;DHT22;11787;52.018;8.570;2023-06-22T08:06:56;23.40;99.90
23237;DHT22;11787;52.018;8.570;2023-06-22T08:09:21;23.50;99.90
23237;DHT22;11787;52.018;8.570;2023-06-22T08:11:47;23.60;99.90
23237;DHT22;11787;52.018;8.570;2023-06-22T08:14:13;23.70;99.90
23237;DHT22;11787;52.018;8.570;2023-06-22T08:16:39;23.70;99.90
23237;DHT22;11787;52.018;8.570;2023-06-22T08:19:05;23.70;99.90
23237;DHT22;11787;52.018;8.570;2023-06-22T08:21:31;23.80;99.90
23237;DHT22;11787;52.018;8.570;2023-06-22T08:23:56;23.80;99.90
23237;DHT22;11787;52.018;8.570;2023-06-22T08:26:22;23.90;99.90
23237;DHT22;11787;52.018;8.570;2023-06-22T08:28:48;23.80;99.90
23237;DHT22;11787;52.018;8.570;2023-06-22T08:31:14;23.90;99.90
23237;DHT22;11787;52.018;8.570;2023-06-22T08:33:39;23.90;99.90
23237;DHT22;11787;52.018;8.570;2023-06-22T08:36:05;24.00;99.90
23237;DHT22;11787;52.018;8.570;2023-06-22T08:38:31;23.90;99.90
23237;DHT22;11787;52.018;8.570;2023-06-22T08:40:57;24.00;99.90
23237;DHT22;11787;52.018;8.570;2023-06-22T08:43:22;24.20;99.90
23237;DHT22;11787;52.018;8.570;2023-06-22T08:45:48;24.40;99.90
23237;DHT22;11787;52.018;8.570;2023-06-22T08:48:14;24.60;99.90
23237;DHT22;11787;52.018;8.570;2023-06-22T08:50:39;24.70;99.90
23237;DHT22;11787;52.018;8.570;2023-06-22T08:53:06;24.80;99.90
23237;DHT22;11787;52.018;8.570;2023-06-22T08:55:31;24.90;99.90
23237;DHT22;11787;52.018;8.570;2023-06-22T08:57:57;25.10;99.90
23237;DHT22;11787;52.018;8.570;2023-06-22T09:00:22;25.20;99.90
23237;DHT22;11787;52.018;8.570;2023-06-22T09:02:48;25.10;99.90
23237;DHT22;11787;52.018;8.570;2023-06-22T09:05:14;25.10;99.90
23237;DHT22;11787;52.018;8.570;2023-06-22T09:07:40;25.20;99.90
23237;DHT22;11787;52.018;8.570;2023-06-22T09:10:06;25.10;99.90
23237;DHT22;11787;52.018;8.570;2023-06-22T09:12:33;25.00;99.90
23237;DHT22;11787;52.018;8.570;2023-06-22T09:15:01;25.20;99.90
23237;DHT22;11787;52.018;8.570;2023-06-22T09:17:28;25.50;99.90
23237;DHT22;11787;52.018;8.570;2023-06-22T09:19:53;25.70;99.90
23237;DHT22;11787;52.018;8.570;2023-06-22T09:22:19;25.80;99.90
23237;DHT22;11787;52.018;8.570;2023-06-22T09:24:45;26.00;99.90
23237;DHT22;11787;52.018;8.570;2023-06-22T09:27:10;26.20;99.90
23237;DHT22;11787;52.018;8.570;2023-06-22T09:29:36;26.30;99.90
23237;DHT22;11787;52.018;8.570;2023-06-22T09:32:02;26.30;99.90
23237;DHT22;11787;52.018;8.570;2023-06-22T09:34:27;26.30;99.90
23237;DHT22;11787;52.018;8.570;2023-06-22T09:36:53;26.30;99.90
23237;DHT22;11787;52.018;8.570;2023-06-22T09:39:19;26.30;99.90
23237;DHT22;11787;52.018;8.570;2023-06-22T09:41:44;26.40;99.90
23237;DHT22;11787;52.018;8.570;2023-06-22T09:44:10;26.20;99.90
23237;DHT22;11787;52.018;8.570;2023-06-22T09:46:35;26.20;99.90
23237;DHT22;11787;52.018;8.570;2023-06-22T09:49:01;26.20;99.90
23237;DHT22;11787;52.018;8.570;2023-06-22T09:51:26;26.20;99.90
23237;DHT22;11787;52.018;8.570;2023-06-22T09:53:52;26.40;99.90
23237;DHT22;11787;52.018;8.570;2023-06-22T09:56:21;26.50;99.90
23237;DHT22;11787;52.018;8.570;2023-06-22T09:58:47;26.40;99.90
23237;DHT22;11787;52.018;8.570;2023-06-22T10:01:13;26.70;99.90
23237;DHT22;11787;52.018;8.570;2023-06-22T10:03:42;26.40;99.90
23237;DHT22;11787;52.018;8.570;2023-06-22T10:06:08;26.60;99.90
23237;DHT22;11787;52.018;8.570;2023-06-22T10:08:34;26.80;99.90
23237;DHT22;11787;52.018;8.570;2023-06-22T10:11:01;27.00;99.90
23237;DHT22;11787;52.018;8.570;2023-06-22T10:13:26;26.90;99.90
23237;DHT22;11787;52.018;8.570;2023-06-22T10:15:52;27.10;99.90
23237;DHT22;11787;52.018;8.570;2023-06-22T10:18:18;27.50;99.90
23237;DHT22;11787;52.018;8.570;2023-06-22T10:20:49;28.00;99.90
23237;DHT22;11787;52.018;8.570;2023-06-22T10:23:21;28.30;99.90
23237;DHT22;11787;52.018;8.570;2023-06-22T10:25:47;28.70;99.90
23237;DHT22;11787;52.018;8.570;2023-06-22T10:28:13;28.90;99.90
23237;DHT22;11787;52.018;8.570;2023-06-22T10:30:39;29.30;99.90
23237;DHT22;11787;52.018;8.570;2023-06-22T10:33:07;29.60;99.90
23237;DHT22;11787;52.018;8.570;2023-06-22T10:35:32;29.90;99.90
23237;DHT22;11787;52.018;8.570;2023-06-22T10:37:58;30.10;99.90
23237;DHT22;11787;52.018;8.570;2023-06-22T10:40:23;29.80;99.90
23237;DHT22;11787;52.018;8.570;2023-06-22T10:42:49;29.80;99.90
23237;DHT22;11787;52.018;8.570;2023-06-22T10:45:15;29.80;99.90
23237;DHT22;11787;52.018;8.570;2023-06-22T10:47:40;29.70;99.90
23237;DHT22;11787;52.018;8.570;2023-06-22T10:50:07;30.10;99.90
23237;DHT22;11787;52.018;8.570;2023-06-22T10:52:33;30.50;99.90
23237;DHT22;11787;52.018;8.570;2023-06-22T10:54:58;30.80;99.90
23237;DHT22;11787;52.018;8.570;2023-06-22T10:57:24;30.40;99.90
23237;DHT22;11787;52.018;8.570;2023-06-22T10:59:49;29.90;99.90
23237;DHT22;11787;52.018;8.570;2023-06-22T11:02:15;29.80;99.90
23237;DHT22;11787;52.018;8.570;2023-06-22T11:04:41;29.70;99.90
23237;DHT22;11787;52.018;8.570;2023-06-22T11:07:06;29.30;99.90
23237;DHT22;11787;52.018;8.570;2023-06-22T11:09:32;29.10;99.90
23237;DHT22;11787;52.018;8.570;2023-06-22T11:11:58;29.20;99.90
23237;DHT22;11787;52.018;8.570;2023-06-22T11:14:24;29.30;99.90
23237;DHT22;11787;52.018;8.570;2023-06-22T11:16:50;29.20;99.90
23237;DHT22;11787;52.018;8.570;2023-06-22T11:19:16;29.10;99.90
23237;DHT22;11787;52.018;8.570;2023-06-22T11:21:41;29.40;99.90
23237;DHT22;11787;52.018;8.570;2023-06-22T11:24:07;29.70;99.90
23237;DHT22;11787;52.018;8.570;2023-06-22T11:26:33;29.50;99.90
23237;DHT22;11787;52.018;8.570;2023-06-22T11:28:59;29.70;99.90
23237;DHT22;11787;52.018;8.570;2023-06-22T11:31:24;29.90;99.90
23237;DHT22;11787;52.018;8.570;2023-06-22T11:33:50;30.10;99.90
23237;DHT22;11787;52.018;8.570;2023-06-22T11:36:17;29.80;99.90
23237;DHT22;11787;52.018;8.570;2023-06-22T11:38:43;29.70;99.90
23237;DHT22;11787;52.018;8.570;2023-06-22T11:41:09;29.30;99.90
23237;DHT22;11787;52.018;8.570;2023-06-22T11:43:35;29.30;99.90
23237;DHT22;11787;52.018;8.570;2023-06-22T11:46:03;29.10;99.90
23237;DHT22;11787;52.018;8.570;2023-06-22T11:48:29;28.90;99.90
23237;DHT22;11787;52.018;8.570;2023-06-22T11:50:55;28.70;99.90
23237;DHT22;11787;52.018;8.570;2023-06-22T11:53:23;28.80;99.90
23237;DHT22;11787;52.018;8.570;2023-06-22T11:55:49;28.80;99.90
23237;DHT22;11787;52.018;8.570;2023-06-22T11:58:15;28.70;99.90
23237;DHT22;11787;52.018;8.570;2023-06-22T12:00:41;28.70;99.90
23237;DHT22;11787;52.018;8.570;2023-06-22T12:03:07;28.60;99.90
23237;DHT22;11787;52.018;8.570;2023-06-22T12:05:32;28.40;99.90
23237;DHT22;11787;52.018;8.570;2023-06-22T12:07:58;28.50;99.90
23237;DHT22;11787;52.018;8.570;2023-06-22T12:10:24;28.70;99.90
23237;DHT22;11787;52.018;8.570;2023-06-22T12:12:50;28.70;99.90
23237;DHT22;11787;52.018;8.570;2023-06-22T12:15:16;28.60;99.90
23237;DHT22;11787;52.018;8.570;2023-06-22T12:17:41;28.70;99.90
23237;DHT22;11787;52.018;8.570;2023-06-22T12:20:07;28.50;99.90
23237;DHT22;11787;52.018;8.570;2023-06-22T12:22:33;28.30;99.90
23237;DHT22;11787;52.018;8.570;2023-06-22T12:24:59;28.00;99.90
23237;DHT22;11787;52.018;8.570;2023-06-22T12:27:24;27.80;99.90
23237;DHT22;11787;52.018;8.570;2023-06-22T12:29:50;27.50;99.90
23237;DHT22;11787;52.018;8.570;2023-06-22T12:32:16;27.30;99.90
23237;DHT22;11787;52.018;8.570;2023-06-22T12:34:44;27.40;99.90
23237;DHT22;11787;52.018;8.570;2023-06-22T12:37:10;27.30;99.90
23237;DHT22;11787;52.018;8.570;2023-06-22T12:39:36;27.20;99.90
23237;DHT22;11787;52.018;8.570;2023-06-22T12:42:02;27.00;99.90
23237;DHT22;11787;52.018;8.570;2023-06-22T12:44:28;26.90;99.90
23237;DHT22;11787;52.018;8.570;2023-06-22T12:46:53;26.80;99.90
23237;DHT22;11787;52.018;8.570;2023-06-22T12:49:19;26.70;99.90
23237;DHT22;11787;52.018;8.570;2023-06-22T12:51:45;26.60;99.90
23237;DHT22;11787;52.018;8.570;2023-06-22T12:54:11;26.50;99.90
23237;DHT22;11787;52.018;8.570;2023-06-22T12:56:37;26.50;99.90
23237;DHT22;11787;52.018;8.570;2023-06-22T12:59:03;26.50;99.90
23237;DHT22;11787;52.018;8.570;2023-06-22T13:01:29;26.50;99.90
23237;DHT22;11787;52.018;8.570;2023-06-22T13:03:56;26.50;99.90
23237;DHT22;11787;52.018;8.570;2023-06-22T13:06:22;26.30;99.90
23237;DHT22;11787;52.018;8.570;2023-06-22T13:08:47;26.20;99.90
23237;DHT22;11787;52.018;8.570;2023-06-22T13:11:13;26.10;99.90
23237;DHT22;11787;52.018;8.570;2023-06-22T13:13:40;26.00;99.90
23237;DHT22;11787;52.018;8.570;2023-06-22T13:16:06;25.90;99.90
23237;DHT22;11787;52.018;8.570;2023-06-22T13:18:32;25.80;99.90
23237;DHT22;11787;52.018;8.570;2023-06-22T13:20:59;25.70;99.90
23237;DHT22;11787;52.018;8.570;2023-06-22T13:23:25;25.70;99.90
23237;DHT22;11787;52.018;8.570;2023-06-22T13:25:51;25.60;99.90
23237;DHT22;11787;52.018;8.570;2023-06-22T13:28:16;25.50;99.90
23237;DHT22;11787;52.018;8.570;2023-06-22T13:30:42;25.50;99.90
23237;DHT22;11787;52.018;8.570;2023-06-22T13:33:10;25.60;99.90
23237;DHT22;11787;52.018;8.570;2023-06-22T13:35:36;25.40;99.90
23237;DHT22;11787;52.018;8.570;2023-06-22T13:38:03;25.30;99.90
23237;DHT22;11787;52.018;8.570;2023-06-22T13:40:28;25.20;99.90
23237;DHT22;11787;52.018;8.570;2023-06-22T13:42:55;25.10;99.90
23237;DHT22;11787;52.018;8.570;2023-06-22T13:45:20;24.90;99.90
23237;DHT22;11787;52.018;8.570;2023-06-22T13:47:46;24.70;99.90
23237;DHT22;11787;52.018;8.570;2023-06-22T13:50:12;24.60;99.90
23237;DHT22;11787;52.018;8.570;2023-06-22T13:52:38;24.60;99.90
23237;DHT22;11787;52.018;8.570;2023-06-22T13:55:04;24.70;99.90
23237;DHT22;11787;52.018;8.570;2023-06-22T13:57:32;24.60;99.90
23237;DHT22;11787;52.018;8.570;2023-06-22T13:59:58;24.50;99.90
23237;DHT22;11787;52.018;8.570;2023-06-22T14:02:23;24.20;99.90
23237;DHT22;11787;52.018;8.570;2023-06-22T14:04:49;24.00;99.90
23237;DHT22;11787;52.018;8.570;2023-06-22T14:07:14;23.70;99.90
23237;DHT22;11787;52.018;8.570;2023-06-22T14:09:40;23.40;99.90
23237;DHT22;11787;52.018;8.570;2023-06-22T14:12:06;23.30;99.90
23237;DHT22;11787;52.018;8.570;2023-06-22T14:14:35;23.20;99.90
23237;DHT22;11787;52.018;8.570;2023-06-22T14:17:01;23.10;99.90
23237;DHT22;11787;52.018;8.570;2023-06-22T14:19:26;23.10;99.90
23237;DHT22;11787;52.018;8.570;2023-06-22T14:21:52;23.00;99.90
23237;DHT22;11787;52.018;8.570;2023-06-22T14:24:17;22.90;99.90
23237;DHT22;11787;52.018;8.570;2023-06-22T14:26:43;22.90;99.90
23237;DHT22;11787;52.018;8.570;2023-06-22T14:29:08;22.90;99.90
23237;DHT22;11787;52.018;8.570;2023-06-22T14:31:34;22.90;99.90
23237;DHT22;11787;52.018;8.570;2023-06-22T14:34:00;22.90;99.90
23237;DHT22;11787;52.018;8.570;2023-06-22T14:36:26;22.80;99.90
23237;DHT22;11787;52.018;8.570;2023-06-22T14:38:51;22.70;99.90
23237;DHT22;11787;52.018;8.570;2023-06-22T14:41:17;22.60;99.90
23237;DHT22;11787;52.018;8.570;2023-06-22T14:43:46;22.50;99.90
23237;DHT22;11787;52.018;8.570;2023-06-22T14:46:15;22.50;99.90
23237;DHT22;11787;52.018;8.570;2023-06-22T14:48:41;22.50;99.90
23237;DHT22;11787;52.018;8.570;2023-06-22T14:51:08;22.50;99.90
23237;DHT22;11787;52.018;8.570;2023-06-22T14:53:35;22.30;99.90
23237;DHT22;11787;52.018;8.570;2023-06-22T14:56:00;22.20;99.90
23237;DHT22;11787;52.018;8.570;2023-06-22T14:58:30;22.00;99.90
23237;DHT22;11787;52.018;8.570;2023-06-22T15:00:59;21.90;99.90
23237;DHT22;11787;52.018;8.570;2023-06-22T15:03:24;21.90;99.90
23237;DHT22;11787;52.018;8.570;2023-06-22T15:05:53;22.00;99.90
23237;DHT22;11787;52.018;8.570;2023-06-22T15:08:19;21.90;99.90
23237;DHT22;11787;52.018;8.570;2023-06-22T15:10:45;22.10;99.90
23237;DHT22;11787;52.018;8.570;2023-06-22T15:13:10;22.10;99.90
23237;DHT22;11787;52.018;8.570;2023-06-22T15:15:36;22.30;99.90
23237;DHT22;11787;52.018;8.570;2023-06-22T15:18:02;22.30;99.90
23237;DHT22;11787;52.018;8.570;2023-06-22T15:20:27;22.40;99.90
23237;DHT22;11787;52.018;8.570;2023-06-22T15:22:53;22.50;99.90
23237;DHT22;11787;52.018;8.570;2023-06-22T15:25:19;22.60;99.90
23237;DHT22;11787;52.018;8.570;2023-06-22T15:27:44;22.60;99.90